sensor_id;sensor_type;location;lat;lon;timestamp;P1;durP1;ratioP1;P2;durP2;ratioP2
22883;SDS011;13386;24.786;110.488;2023-02-22T00:01:31;108.00;;;30.13;;
22883;SDS011;13386;24.786;110.488;2023-02-22T00:04:14;93.18;;;29.15;;
22883;SDS011;13386;24.786;110.488;2023-02-22T00:06:47;94.65;;;30.50;;
22883;SDS011;13386;24.786;110.488;2023-02-22T00:09:17;96.43;;;28.40;;
22883;SDS011;13386;24.786;110.488;2023-02-22T00:11:47;92.53;;;28.35;;
22883;SDS011;13386;24.786;110.488;2023-02-22T00:14:17;94.80;;;28.08;;
22883;SDS011;13386;24.786;110.488;2023-02-22T00:16:48;93.72;;;28.35;;
22883;SDS011;13386;24.786;110.488;2023-02-22T00:19:20;105.68;;;29.10;;
22883;SDS011;13386;24.786;110.488;2023-02-22T00:21:52;104.82;;;29.27;;
22883;SDS011;13386;24.786;110.488;2023-02-22T00:24:23;107.28;;;31.88;;
22883;SDS011;13386;24.786;110.488;2023-02-22T00:26:55;104.32;;;30.85;;
22883;SDS011;13386;24.786;110.488;2023-02-22T00:29:25;114.65;;;32.53;;
22883;SDS011;13386;24.786;110.488;2023-02-22T00:31:55;132.80;;;36.00;;
22883;SDS011;13386;24.786;110.488;2023-02-22T00:34:28;125.28;;;35.15;;
22883;SDS011;13386;24.786;110.488;2023-02-22T00:36:58;128.82;;;36.47;;
22883;SDS011;13386;24.786;110.488;2023-02-22T00:39:30;116.90;;;34.88;;
22883;SDS011;13386;24.786;110.488;2023-02-22T00:42:00;127.45;;;34.97;;
22883;SDS011;13386;24.786;110.488;2023-02-22T00:44:30;119.13;;;33.97;;
22883;SDS011;13386;24.786;110.488;2023-02-22T00:47:00;115.97;;;32.38;;
22883;SDS011;13386;24.786;110.488;2023-02-22T00:49:33;112.22;;;32.55;;
22883;SDS011;13386;24.786;110.488;2023-02-22T00:52:03;108.55;;;31.52;;
22883;SDS011;13386;24.786;110.488;2023-02-22T00:54:34;101.70;;;31.38;;
22883;SDS011;13386;24.786;110.488;2023-02-22T00:57:05;92.63;;;29.10;;
22883;SDS011;13386;24.786;110.488;2023-02-22T00:59:35;109.15;;;31.38;;
22883;SDS011;13386;24.786;110.488;2023-02-22T01:02:05;98.65;;;30.27;;
22883;SDS011;13386;24.786;110.488;2023-02-22T01:04:38;93.28;;;29.25;;
22883;SDS011;13386;24.786;110.488;2023-02-22T01:07:11;106.60;;;32.17;;
22883;SDS011;13386;24.786;110.488;2023-02-22T01:09:41;97.72;;;28.98;;
22883;SDS011;13386;24.786;110.488;2023-02-22T01:12:12;96.57;;;27.83;;
22883;SDS011;13386;24.786;110.488;2023-02-22T01:14:42;99.93;;;28.17;;
22883;SDS011;13386;24.786;110.488;2023-02-22T01:17:12;100.10;;;28.63;;
22883;SDS011;13386;24.786;110.488;2023-02-22T01:19:44;96.15;;;28.60;;
22883;SDS011;13386;24.786;110.488;2023-02-22T01:22:14;98.57;;;28.83;;
22883;SDS011;13386;24.786;110.488;2023-02-22T01:24:44;111.82;;;30.75;;
22883;SDS011;13386;24.786;110.488;2023-02-22T01:27:15;109.47;;;30.83;;
22883;SDS011;13386;24.786;110.488;2023-02-22T01:29:47;103.47;;;30.08;;
22883;SDS011;13386;24.786;110.488;2023-02-22T01:32:17;106.53;;;31.52;;
22883;SDS011;13386;24.786;110.488;2023-02-22T01:34:51;102.03;;;30.98;;
22883;SDS011;13386;24.786;110.488;2023-02-22T01:37:22;99.22;;;29.95;;
22883;SDS011;13386;24.786;110.488;2023-02-22T01:39:53;105.43;;;31.95;;
22883;SDS011;13386;24.786;110.488;2023-02-22T01:42:23;105.25;;;31.35;;
22883;SDS011;13386;24.786;110.488;2023-02-22T01:47:42;93.03;;;27.10;;
22883;SDS011;13386;24.786;110.488;2023-02-22T01:50:14;97.90;;;30.52;;
22883;SDS011;13386;24.786;110.488;2023-02-22T01:52:47;99.22;;;29.95;;
22883;SDS011;13386;24.786;110.488;2023-02-22T01:55:17;90.20;;;27.73;;
22883;SDS011;13386;24.786;110.488;2023-02-22T01:57:48;93.75;;;28.40;;
22883;SDS011;13386;24.786;110.488;2023-02-22T02:00:18;85.97;;;27.88;;
22883;SDS011;13386;24.786;110.488;2023-02-22T02:02:55;88.82;;;26.70;;
22883;SDS011;13386;24.786;110.488;2023-02-22T02:07:58;86.95;;;27.52;;
22883;SDS011;13386;24.786;110.488;2023-02-22T02:10:30;103.70;;;30.25;;
22883;SDS011;13386;24.786;110.488;2023-02-22T02:13:01;100.10;;;29.10;;
22883;SDS011;13386;24.786;110.488;2023-02-22T02:15:32;97.80;;;29.60;;
22883;SDS011;13386;24.786;110.488;2023-02-22T02:18:03;95.85;;;29.17;;
22883;SDS011;13386;24.786;110.488;2023-02-22T02:20:36;100.20;;;31.10;;
22883;SDS011;13386;24.786;110.488;2023-02-22T02:23:12;91.75;;;28.25;;
22883;SDS011;13386;24.786;110.488;2023-02-22T02:25:52;102.90;;;28.77;;
22883;SDS011;13386;24.786;110.488;2023-02-22T02:28:28;89.25;;;27.55;;
22883;SDS011;13386;24.786;110.488;2023-02-22T02:33:53;97.78;;;28.60;;
22883;SDS011;13386;24.786;110.488;2023-02-22T02:36:28;92.47;;;29.00;;
22883;SDS011;13386;24.786;110.488;2023-02-22T02:39:00;87.68;;;27.40;;
22883;SDS011;13386;24.786;110.488;2023-02-22T02:41:34;99.30;;;28.77;;
22883;SDS011;13386;24.786;110.488;2023-02-22T02:44:07;96.38;;;28.58;;
22883;SDS011;13386;24.786;110.488;2023-02-22T02:46:43;79.07;;;26.25;;
22883;SDS011;13386;24.786;110.488;2023-02-22T02:49:18;94.20;;;29.30;;
22883;SDS011;13386;24.786;110.488;2023-02-22T02:51:50;95.60;;;27.47;;
22883;SDS011;13386;24.786;110.488;2023-02-22T02:54:23;90.13;;;28.52;;
22883;SDS011;13386;24.786;110.488;2023-02-22T02:56:54;89.78;;;29.98;;
22883;SDS011;13386;24.786;110.488;2023-02-22T02:59:25;95.60;;;27.75;;
22883;SDS011;13386;24.786;110.488;2023-02-22T03:02:03;93.72;;;27.95;;
22883;SDS011;13386;24.786;110.488;2023-02-22T03:04:39;86.18;;;26.23;;
22883;SDS011;13386;24.786;110.488;2023-02-22T03:07:17;92.25;;;25.70;;
22883;SDS011;13386;24.786;110.488;2023-02-22T03:09:55;84.30;;;27.00;;
22883;SDS011;13386;24.786;110.488;2023-02-22T03:12:31;88.97;;;26.40;;
22883;SDS011;13386;24.786;110.488;2023-02-22T03:15:10;82.93;;;25.33;;
22883;SDS011;13386;24.786;110.488;2023-02-22T03:17:45;77.38;;;22.85;;
22883;SDS011;13386;24.786;110.488;2023-02-22T03:20:19;78.80;;;24.48;;
22883;SDS011;13386;24.786;110.488;2023-02-22T03:23:01;85.43;;;26.27;;
22883;SDS011;13386;24.786;110.488;2023-02-22T03:25:33;95.80;;;28.30;;
22883;SDS011;13386;24.786;110.488;2023-02-22T03:28:06;83.53;;;25.23;;
22883;SDS011;13386;24.786;110.488;2023-02-22T03:30:38;84.85;;;26.35;;
22883;SDS011;13386;24.786;110.488;2023-02-22T03:33:11;91.72;;;26.52;;
22883;SDS011;13386;24.786;110.488;2023-02-22T03:35:49;82.38;;;26.17;;
22883;SDS011;13386;24.786;110.488;2023-02-22T03:38:23;75.15;;;23.80;;
22883;SDS011;13386;24.786;110.488;2023-02-22T03:40:55;81.97;;;22.88;;
22883;SDS011;13386;24.786;110.488;2023-02-22T03:43:29;72.97;;;23.60;;
22883;SDS011;13386;24.786;110.488;2023-02-22T03:46:03;81.95;;;25.30;;
22883;SDS011;13386;24.786;110.488;2023-02-22T03:48:35;84.53;;;24.75;;
22883;SDS011;13386;24.786;110.488;2023-02-22T03:51:09;88.15;;;27.88;;
22883;SDS011;13386;24.786;110.488;2023-02-22T03:53:42;84.43;;;25.47;;
22883;SDS011;13386;24.786;110.488;2023-02-22T03:56:15;98.25;;;26.67;;
22883;SDS011;13386;24.786;110.488;2023-02-22T03:58:47;83.15;;;25.30;;
22883;SDS011;13386;24.786;110.488;2023-02-22T04:01:19;81.07;;;25.38;;
22883;SDS011;13386;24.786;110.488;2023-02-22T04:03:50;80.47;;;24.92;;
22883;SDS011;13386;24.786;110.488;2023-02-22T04:06:22;141.43;;;32.05;;
22883;SDS011;13386;24.786;110.488;2023-02-22T04:08:53;81.95;;;25.20;;
22883;SDS011;13386;24.786;110.488;2023-02-22T04:11:23;78.38;;;23.48;;
22883;SDS011;13386;24.786;110.488;2023-02-22T04:13:54;75.78;;;23.35;;
22883;SDS011;13386;24.786;110.488;2023-02-22T04:16:25;72.28;;;23.63;;
22883;SDS011;13386;24.786;110.488;2023-02-22T04:18:55;81.95;;;24.48;;
22883;SDS011;13386;24.786;110.488;2023-02-22T04:21:27;86.43;;;25.73;;
22883;SDS011;13386;24.786;110.488;2023-02-22T04:23:59;81.93;;;26.75;;
22883;SDS011;13386;24.786;110.488;2023-02-22T04:26:29;86.95;;;26.27;;
22883;SDS011;13386;24.786;110.488;2023-02-22T04:29:01;88.32;;;27.15;;
22883;SDS011;13386;24.786;110.488;2023-02-22T04:31:38;82.32;;;25.00;;
22883;SDS011;13386;24.786;110.488;2023-02-22T04:34:09;79.57;;;25.70;;
22883;SDS011;13386;24.786;110.488;2023-02-22T04:36:42;87.97;;;27.48;;
22883;SDS011;13386;24.786;110.488;2023-02-22T04:39:12;82.80;;;24.65;;
22883;SDS011;13386;24.786;110.488;2023-02-22T04:41:44;79.38;;;24.25;;
22883;SDS011;13386;24.786;110.488;2023-02-22T04:44:14;75.00;;;24.30;;
22883;SDS011;13386;24.786;110.488;2023-02-22T04:46:45;83.47;;;24.17;;
22883;SDS011;13386;24.786;110.488;2023-02-22T04:49:16;77.80;;;24.73;;
22883;SDS011;13386;24.786;110.488;2023-02-22T04:51:49;72.93;;;23.83;;
22883;SDS011;13386;24.786;110.488;2023-02-22T04:54:23;72.75;;;22.08;;
22883;SDS011;13386;24.786;110.488;2023-02-22T04:56:53;79.00;;;24.15;;
22883;SDS011;13386;24.786;110.488;2023-02-22T04:59:24;70.53;;;23.30;;
22883;SDS011;13386;24.786;110.488;2023-02-22T05:02:01;85.72;;;24.50;;
22883;SDS011;13386;24.786;110.488;2023-02-22T05:04:31;78.82;;;24.25;;
22883;SDS011;13386;24.786;110.488;2023-02-22T05:07:03;76.95;;;24.90;;
22883;SDS011;13386;24.786;110.488;2023-02-22T05:09:34;76.22;;;23.60;;
22883;SDS011;13386;24.786;110.488;2023-02-22T05:12:04;88.85;;;25.52;;
22883;SDS011;13386;24.786;110.488;2023-02-22T05:14:34;80.35;;;25.45;;
22883;SDS011;13386;24.786;110.488;2023-02-22T05:17:04;73.30;;;25.67;;
22883;SDS011;13386;24.786;110.488;2023-02-22T05:19:35;72.00;;;24.20;;
22883;SDS011;13386;24.786;110.488;2023-02-22T05:22:07;79.32;;;23.83;;
22883;SDS011;13386;24.786;110.488;2023-02-22T05:24:38;73.90;;;24.90;;
22883;SDS011;13386;24.786;110.488;2023-02-22T05:27:09;85.32;;;24.65;;
22883;SDS011;13386;24.786;110.488;2023-02-22T05:29:39;68.80;;;21.75;;
22883;SDS011;13386;24.786;110.488;2023-02-22T05:32:10;73.22;;;23.42;;
22883;SDS011;13386;24.786;110.488;2023-02-22T05:34:40;84.18;;;22.55;;
22883;SDS011;13386;24.786;110.488;2023-02-22T05:37:13;75.88;;;22.67;;
22883;SDS011;13386;24.786;110.488;2023-02-22T05:39:44;77.53;;;24.05;;
22883;SDS011;13386;24.786;110.488;2023-02-22T05:42:14;73.90;;;22.95;;
22883;SDS011;13386;24.786;110.488;2023-02-22T05:44:45;77.47;;;21.92;;
22883;SDS011;13386;24.786;110.488;2023-02-22T05:47:15;69.38;;;22.48;;
22883;SDS011;13386;24.786;110.488;2023-02-22T05:49:45;67.00;;;21.13;;
22883;SDS011;13386;24.786;110.488;2023-02-22T05:52:18;73.75;;;23.30;;
22883;SDS011;13386;24.786;110.488;2023-02-22T05:54:49;66.40;;;21.65;;
22883;SDS011;13386;24.786;110.488;2023-02-22T05:57:19;63.67;;;21.20;;
22883;SDS011;13386;24.786;110.488;2023-02-22T05:59:49;73.85;;;22.98;;
22883;SDS011;13386;24.786;110.488;2023-02-22T06:02:19;68.20;;;21.85;;
22883;SDS011;13386;24.786;110.488;2023-02-22T06:04:50;75.13;;;21.58;;
22883;SDS011;13386;24.786;110.488;2023-02-22T06:07:21;65.60;;;20.25;;
22883;SDS011;13386;24.786;110.488;2023-02-22T06:09:52;66.93;;;21.60;;
22883;SDS011;13386;24.786;110.488;2023-02-22T06:12:23;60.10;;;21.00;;
22883;SDS011;13386;24.786;110.488;2023-02-22T06:14:53;71.55;;;21.45;;
22883;SDS011;13386;24.786;110.488;2023-02-22T06:17:23;66.03;;;21.17;;
22883;SDS011;13386;24.786;110.488;2023-02-22T06:19:53;62.47;;;21.25;;
22883;SDS011;13386;24.786;110.488;2023-02-22T06:22:26;68.10;;;21.58;;
22883;SDS011;13386;24.786;110.488;2023-02-22T06:24:56;67.82;;;23.23;;
22883;SDS011;13386;24.786;110.488;2023-02-22T06:27:26;68.45;;;23.17;;
22883;SDS011;13386;24.786;110.488;2023-02-22T06:29:59;66.70;;;21.23;;
22883;SDS011;13386;24.786;110.488;2023-02-22T06:32:29;66.88;;;21.55;;
22883;SDS011;13386;24.786;110.488;2023-02-22T06:35:00;72.90;;;21.98;;
22883;SDS011;13386;24.786;110.488;2023-02-22T06:37:32;76.15;;;23.42;;
22883;SDS011;13386;24.786;110.488;2023-02-22T06:40:02;64.50;;;20.80;;
22883;SDS011;13386;24.786;110.488;2023-02-22T06:42:32;62.20;;;20.63;;
22883;SDS011;13386;24.786;110.488;2023-02-22T06:45:03;71.03;;;22.02;;
22883;SDS011;13386;24.786;110.488;2023-02-22T06:47:36;58.55;;;20.80;;
22883;SDS011;13386;24.786;110.488;2023-02-22T06:50:09;65.10;;;22.30;;
22883;SDS011;13386;24.786;110.488;2023-02-22T06:52:47;64.80;;;20.73;;
22883;SDS011;13386;24.786;110.488;2023-02-22T06:55:19;68.07;;;20.70;;
22883;SDS011;13386;24.786;110.488;2023-02-22T06:57:49;71.85;;;21.33;;
22883;SDS011;13386;24.786;110.488;2023-02-22T07:00:20;61.88;;;20.48;;
22883;SDS011;13386;24.786;110.488;2023-02-22T07:02:50;64.97;;;22.35;;
22883;SDS011;13386;24.786;110.488;2023-02-22T07:05:21;59.17;;;19.67;;
22883;SDS011;13386;24.786;110.488;2023-02-22T07:07:53;60.35;;;19.60;;
22883;SDS011;13386;24.786;110.488;2023-02-22T07:10:24;55.35;;;18.63;;
22883;SDS011;13386;24.786;110.488;2023-02-22T07:12:54;75.90;;;22.60;;
22883;SDS011;13386;24.786;110.488;2023-02-22T07:15:25;59.28;;;20.70;;
22883;SDS011;13386;24.786;110.488;2023-02-22T07:17:56;62.55;;;20.17;;
22883;SDS011;13386;24.786;110.488;2023-02-22T07:20:26;67.75;;;20.63;;
22883;SDS011;13386;24.786;110.488;2023-02-22T07:23:00;59.70;;;19.90;;
22883;SDS011;13386;24.786;110.488;2023-02-22T07:25:31;62.55;;;21.23;;
22883;SDS011;13386;24.786;110.488;2023-02-22T07:28:01;63.00;;;19.25;;
22883;SDS011;13386;24.786;110.488;2023-02-22T07:30:31;54.45;;;18.38;;
22883;SDS011;13386;24.786;110.488;2023-02-22T07:33:02;60.25;;;19.90;;
22883;SDS011;13386;24.786;110.488;2023-02-22T07:35:33;59.17;;;18.85;;
22883;SDS011;13386;24.786;110.488;2023-02-22T07:38:06;56.95;;;18.90;;
22883;SDS011;13386;24.786;110.488;2023-02-22T07:40:37;60.38;;;20.15;;
22883;SDS011;13386;24.786;110.488;2023-02-22T07:43:12;59.33;;;19.73;;
22883;SDS011;13386;24.786;110.488;2023-02-22T07:45:44;62.70;;;20.23;;
22883;SDS011;13386;24.786;110.488;2023-02-22T07:48:15;59.25;;;19.85;;
22883;SDS011;13386;24.786;110.488;2023-02-22T07:50:45;56.17;;;19.65;;
22883;SDS011;13386;24.786;110.488;2023-02-22T07:53:18;53.92;;;18.70;;
22883;SDS011;13386;24.786;110.488;2023-02-22T07:55:48;59.55;;;20.60;;
22883;SDS011;13386;24.786;110.488;2023-02-22T07:58:19;60.42;;;19.95;;
22883;SDS011;13386;24.786;110.488;2023-02-22T08:00:50;65.28;;;19.80;;
22883;SDS011;13386;24.786;110.488;2023-02-22T08:03:21;60.80;;;19.83;;
22883;SDS011;13386;24.786;110.488;2023-02-22T08:05:53;59.63;;;19.77;;
22883;SDS011;13386;24.786;110.488;2023-02-22T08:08:25;60.38;;;20.25;;
22883;SDS011;13386;24.786;110.488;2023-02-22T08:10:55;60.10;;;19.45;;
22883;SDS011;13386;24.786;110.488;2023-02-22T08:13:25;55.42;;;19.52;;
22883;SDS011;13386;24.786;110.488;2023-02-22T08:15:56;62.30;;;20.27;;
22883;SDS011;13386;24.786;110.488;2023-02-22T08:18:26;57.53;;;20.35;;
22883;SDS011;13386;24.786;110.488;2023-02-22T08:20:56;55.97;;;19.10;;
22883;SDS011;13386;24.786;110.488;2023-02-22T08:23:28;59.13;;;20.42;;
22883;SDS011;13386;24.786;110.488;2023-02-22T08:26:04;62.80;;;20.55;;
22883;SDS011;13386;24.786;110.488;2023-02-22T08:28:35;67.28;;;20.73;;
22883;SDS011;13386;24.786;110.488;2023-02-22T08:31:05;63.22;;;20.88;;
22883;SDS011;13386;24.786;110.488;2023-02-22T08:33:35;66.38;;;22.20;;
22883;SDS011;13386;24.786;110.488;2023-02-22T08:36:05;65.38;;;21.77;;
22883;SDS011;13386;24.786;110.488;2023-02-22T08:38:37;58.03;;;19.90;;
22883;SDS011;13386;24.786;110.488;2023-02-22T08:41:07;69.35;;;22.50;;
22883;SDS011;13386;24.786;110.488;2023-02-22T08:43:38;69.25;;;21.52;;
22883;SDS011;13386;24.786;110.488;2023-02-22T08:46:08;86.80;;;27.30;;
22883;SDS011;13386;24.786;110.488;2023-02-22T08:48:38;90.03;;;30.98;;
22883;SDS011;13386;24.786;110.488;2023-02-22T08:51:18;78.75;;;25.63;;
22883;SDS011;13386;24.786;110.488;2023-02-22T08:53:50;89.32;;;28.23;;
22883;SDS011;13386;24.786;110.488;2023-02-22T08:56:21;83.45;;;27.50;;
22883;SDS011;13386;24.786;110.488;2023-02-22T08:58:52;90.15;;;29.75;;
22883;SDS011;13386;24.786;110.488;2023-02-22T09:01:24;76.53;;;23.38;;
22883;SDS011;13386;24.786;110.488;2023-02-22T09:03:55;89.75;;;28.50;;
22883;SDS011;13386;24.786;110.488;2023-02-22T09:06:25;97.28;;;27.02;;
22883;SDS011;13386;24.786;110.488;2023-02-22T09:08:57;87.47;;;27.52;;
22883;SDS011;13386;24.786;110.488;2023-02-22T09:11:27;94.07;;;28.58;;
22883;SDS011;13386;24.786;110.488;2023-02-22T09:14:13;96.45;;;28.58;;
22883;SDS011;13386;24.786;110.488;2023-02-22T09:16:43;91.40;;;29.70;;
22883;SDS011;13386;24.786;110.488;2023-02-22T09:19:14;99.95;;;30.83;;
22883;SDS011;13386;24.786;110.488;2023-02-22T09:21:44;94.70;;;27.70;;
22883;SDS011;13386;24.786;110.488;2023-02-22T09:24:16;96.57;;;28.58;;
22883;SDS011;13386;24.786;110.488;2023-02-22T09:26:46;93.00;;;26.42;;
22883;SDS011;13386;24.786;110.488;2023-02-22T09:29:20;92.30;;;28.23;;
22883;SDS011;13386;24.786;110.488;2023-02-22T09:31:50;102.82;;;29.50;;
22883;SDS011;13386;24.786;110.488;2023-02-22T09:34:21;99.28;;;28.05;;
22883;SDS011;13386;24.786;110.488;2023-02-22T09:36:55;97.53;;;30.08;;
22883;SDS011;13386;24.786;110.488;2023-02-22T09:39:27;92.07;;;28.70;;
22883;SDS011;13386;24.786;110.488;2023-02-22T09:42:04;98.28;;;28.33;;
22883;SDS011;13386;24.786;110.488;2023-02-22T09:44:37;100.63;;;31.30;;
22883;SDS011;13386;24.786;110.488;2023-02-22T09:47:11;101.60;;;30.98;;
22883;SDS011;13386;24.786;110.488;2023-02-22T09:49:46;105.60;;;33.73;;
22883;SDS011;13386;24.786;110.488;2023-02-22T09:52:24;102.43;;;33.63;;
22883;SDS011;13386;24.786;110.488;2023-02-22T09:55:00;100.05;;;32.72;;
22883;SDS011;13386;24.786;110.488;2023-02-22T09:57:35;100.05;;;33.58;;
22883;SDS011;13386;24.786;110.488;2023-02-22T10:00:11;100.57;;;31.55;;
22883;SDS011;13386;24.786;110.488;2023-02-22T10:02:46;99.90;;;31.25;;
22883;SDS011;13386;24.786;110.488;2023-02-22T10:05:19;91.22;;;30.48;;
22883;SDS011;13386;24.786;110.488;2023-02-22T10:10:24;101.65;;;32.25;;
22883;SDS011;13386;24.786;110.488;2023-02-22T10:13:00;89.65;;;30.98;;
22883;SDS011;13386;24.786;110.488;2023-02-22T10:15:41;101.20;;;31.85;;
22883;SDS011;13386;24.786;110.488;2023-02-22T10:18:21;97.70;;;28.50;;
22883;SDS011;13386;24.786;110.488;2023-02-22T10:20:56;98.82;;;31.30;;
22883;SDS011;13386;24.786;110.488;2023-02-22T10:23:29;104.28;;;32.40;;
22883;SDS011;13386;24.786;110.488;2023-02-22T10:26:14;96.25;;;30.35;;
22883;SDS011;13386;24.786;110.488;2023-02-22T10:28:46;97.68;;;29.30;;
22883;SDS011;13386;24.786;110.488;2023-02-22T10:31:20;104.95;;;31.73;;
22883;SDS011;13386;24.786;110.488;2023-02-22T10:33:52;98.60;;;32.10;;
22883;SDS011;13386;24.786;110.488;2023-02-22T10:36:24;104.65;;;31.15;;
22883;SDS011;13386;24.786;110.488;2023-02-22T10:38:55;97.75;;;32.20;;
22883;SDS011;13386;24.786;110.488;2023-02-22T10:41:30;101.13;;;28.88;;
22883;SDS011;13386;24.786;110.488;2023-02-22T10:44:01;120.13;;;31.63;;
22883;SDS011;13386;24.786;110.488;2023-02-22T10:46:32;119.85;;;33.67;;
22883;SDS011;13386;24.786;110.488;2023-02-22T10:49:05;96.18;;;29.98;;
22883;SDS011;13386;24.786;110.488;2023-02-22T10:51:35;101.70;;;30.48;;
22883;SDS011;13386;24.786;110.488;2023-02-22T10:54:17;84.63;;;29.02;;
22883;SDS011;13386;24.786;110.488;2023-02-22T10:56:51;99.85;;;30.38;;
22883;SDS011;13386;24.786;110.488;2023-02-22T10:59:27;96.15;;;30.05;;
22883;SDS011;13386;24.786;110.488;2023-02-22T11:02:00;98.90;;;29.42;;
22883;SDS011;13386;24.786;110.488;2023-02-22T11:04:46;105.57;;;31.08;;
22883;SDS011;13386;24.786;110.488;2023-02-22T11:07:23;97.45;;;29.27;;
22883;SDS011;13386;24.786;110.488;2023-02-22T11:09:54;96.93;;;30.42;;
22883;SDS011;13386;24.786;110.488;2023-02-22T11:12:27;99.35;;;30.13;;
22883;SDS011;13386;24.786;110.488;2023-02-22T11:15:00;93.15;;;28.67;;
22883;SDS011;13386;24.786;110.488;2023-02-22T11:17:44;90.22;;;29.30;;
22883;SDS011;13386;24.786;110.488;2023-02-22T11:20:17;95.85;;;30.05;;
22883;SDS011;13386;24.786;110.488;2023-02-22T11:22:52;90.63;;;28.50;;
22883;SDS011;13386;24.786;110.488;2023-02-22T11:25:25;93.38;;;27.80;;
22883;SDS011;13386;24.786;110.488;2023-02-22T11:28:05;95.72;;;30.30;;
22883;SDS011;13386;24.786;110.488;2023-02-22T11:30:36;103.72;;;30.83;;
22883;SDS011;13386;24.786;110.488;2023-02-22T11:33:12;104.63;;;32.28;;
22883;SDS011;13386;24.786;110.488;2023-02-22T11:35:49;92.38;;;30.27;;
22883;SDS011;13386;24.786;110.488;2023-02-22T11:38:22;96.25;;;33.22;;
22883;SDS011;13386;24.786;110.488;2023-02-22T11:43:51;105.82;;;32.22;;
22883;SDS011;13386;24.786;110.488;2023-02-22T11:46:22;103.68;;;34.08;;
22883;SDS011;13386;24.786;110.488;2023-02-22T11:48:58;94.72;;;29.33;;
22883;SDS011;13386;24.786;110.488;2023-02-22T11:51:34;101.28;;;32.67;;
22883;SDS011;13386;24.786;110.488;2023-02-22T11:54:17;107.25;;;33.60;;
22883;SDS011;13386;24.786;110.488;2023-02-22T11:56:58;104.18;;;34.70;;
22883;SDS011;13386;24.786;110.488;2023-02-22T11:59:35;104.60;;;33.70;;
22883;SDS011;13386;24.786;110.488;2023-02-22T12:05:09;100.97;;;31.45;;
22883;SDS011;13386;24.786;110.488;2023-02-22T12:07:47;104.53;;;33.30;;
22883;SDS011;13386;24.786;110.488;2023-02-22T12:10:25;99.32;;;31.52;;
22883;SDS011;13386;24.786;110.488;2023-02-22T12:13:07;96.65;;;31.95;;
22883;SDS011;13386;24.786;110.488;2023-02-22T12:15:47;98.30;;;32.42;;
22883;SDS011;13386;24.786;110.488;2023-02-22T12:18:24;92.28;;;31.27;;
22883;SDS011;13386;24.786;110.488;2023-02-22T12:20:59;102.18;;;31.00;;
22883;SDS011;13386;24.786;110.488;2023-02-22T12:23:40;89.93;;;30.40;;
22883;SDS011;13386;24.786;110.488;2023-02-22T12:26:14;97.95;;;32.75;;
22883;SDS011;13386;24.786;110.488;2023-02-22T12:28:46;101.22;;;32.72;;
22883;SDS011;13386;24.786;110.488;2023-02-22T12:31:27;102.60;;;32.53;;
22883;SDS011;13386;24.786;110.488;2023-02-22T12:34:01;108.78;;;33.05;;
22883;SDS011;13386;24.786;110.488;2023-02-22T12:36:37;132.35;;;35.13;;
22883;SDS011;13386;24.786;110.488;2023-02-22T12:39:22;93.22;;;30.73;;
22883;SDS011;13386;24.786;110.488;2023-02-22T12:41:58;88.15;;;28.52;;
22883;SDS011;13386;24.786;110.488;2023-02-22T12:44:30;98.82;;;28.13;;
22883;SDS011;13386;24.786;110.488;2023-02-22T12:47:12;93.35;;;31.15;;
22883;SDS011;13386;24.786;110.488;2023-02-22T12:49:47;97.82;;;32.28;;
22883;SDS011;13386;24.786;110.488;2023-02-22T12:52:20;103.40;;;31.58;;
22883;SDS011;13386;24.786;110.488;2023-02-22T12:55:03;102.82;;;30.33;;
22883;SDS011;13386;24.786;110.488;2023-02-22T12:57:40;103.10;;;33.58;;
22883;SDS011;13386;24.786;110.488;2023-02-22T13:00:14;102.75;;;32.25;;
22883;SDS011;13386;24.786;110.488;2023-02-22T13:03:00;95.75;;;31.55;;
22883;SDS011;13386;24.786;110.488;2023-02-22T13:08:11;93.80;;;29.65;;
22883;SDS011;13386;24.786;110.488;2023-02-22T13:10:56;101.13;;;32.72;;
22883;SDS011;13386;24.786;110.488;2023-02-22T13:13:34;87.57;;;28.30;;
22883;SDS011;13386;24.786;110.488;2023-02-22T13:16:07;90.88;;;27.98;;
22883;SDS011;13386;24.786;110.488;2023-02-22T13:18:43;96.43;;;30.95;;
22883;SDS011;13386;24.786;110.488;2023-02-22T13:21:17;96.50;;;29.33;;
22883;SDS011;13386;24.786;110.488;2023-02-22T13:23:53;103.15;;;32.13;;
22883;SDS011;13386;24.786;110.488;2023-02-22T13:26:32;89.03;;;31.55;;
22883;SDS011;13386;24.786;110.488;2023-02-22T13:29:05;95.78;;;30.25;;
22883;SDS011;13386;24.786;110.488;2023-02-22T13:31:49;91.18;;;29.40;;
22883;SDS011;13386;24.786;110.488;2023-02-22T13:34:29;89.70;;;27.45;;
22883;SDS011;13386;24.786;110.488;2023-02-22T13:37:07;78.20;;;26.38;;
22883;SDS011;13386;24.786;110.488;2023-02-22T13:39:46;87.45;;;28.58;;
22883;SDS011;13386;24.786;110.488;2023-02-22T13:42:26;87.75;;;28.23;;
22883;SDS011;13386;24.786;110.488;2023-02-22T13:50:31;83.88;;;27.73;;
22883;SDS011;13386;24.786;110.488;2023-02-22T13:53:02;88.00;;;27.50;;
22883;SDS011;13386;24.786;110.488;2023-02-22T13:55:35;87.50;;;25.90;;
22883;SDS011;13386;24.786;110.488;2023-02-22T13:58:08;84.13;;;26.88;;
22883;SDS011;13386;24.786;110.488;2023-02-22T14:00:43;89.97;;;28.70;;
22883;SDS011;13386;24.786;110.488;2023-02-22T14:06:04;78.18;;;25.85;;
22883;SDS011;13386;24.786;110.488;2023-02-22T14:08:41;81.93;;;26.50;;
22883;SDS011;13386;24.786;110.488;2023-02-22T14:14:10;85.72;;;28.83;;
22883;SDS011;13386;24.786;110.488;2023-02-22T14:16:43;77.03;;;22.40;;
22883;SDS011;13386;24.786;110.488;2023-02-22T14:19:14;80.60;;;25.75;;
22883;SDS011;13386;24.786;110.488;2023-02-22T14:21:55;82.53;;;25.98;;
22883;SDS011;13386;24.786;110.488;2023-02-22T14:24:28;86.38;;;28.55;;
22883;SDS011;13386;24.786;110.488;2023-02-22T14:27:04;81.93;;;25.75;;
22883;SDS011;13386;24.786;110.488;2023-02-22T14:29:34;90.53;;;27.40;;
22883;SDS011;13386;24.786;110.488;2023-02-22T14:32:05;79.95;;;26.35;;
22883;SDS011;13386;24.786;110.488;2023-02-22T14:34:40;79.95;;;26.35;;
22883;SDS011;13386;24.786;110.488;2023-02-22T14:37:14;86.25;;;27.35;;
22883;SDS011;13386;24.786;110.488;2023-02-22T14:39:45;82.38;;;26.77;;
22883;SDS011;13386;24.786;110.488;2023-02-22T14:42:18;74.38;;;24.42;;
22883;SDS011;13386;24.786;110.488;2023-02-22T14:44:53;84.63;;;26.83;;
22883;SDS011;13386;24.786;110.488;2023-02-22T14:47:27;80.60;;;27.08;;
22883;SDS011;13386;24.786;110.488;2023-02-22T14:50:02;81.07;;;25.05;;
22883;SDS011;13386;24.786;110.488;2023-02-22T14:52:35;82.38;;;27.42;;
22883;SDS011;13386;24.786;110.488;2023-02-22T14:55:14;72.50;;;24.65;;
22883;SDS011;13386;24.786;110.488;2023-02-22T14:57:49;80.07;;;22.80;;